createdAt,value
2023-04-20T00:01:21.920Z,4.06
2023-04-20T00:04:30.639Z,3.98
2023-04-20T00:07:41.562Z,4.11
2023-04-20T00:10:51.018Z,4.12
2023-04-20T00:13:59.320Z,4.15
2023-04-20T00:17:08.007Z,4.13
2023-04-20T00:20:17.507Z,4.03
2023-04-20T00:23:27.328Z,4.01
2023-04-20T00:26:35.587Z,4.03
2023-04-20T00:29:44.704Z,4.04
2023-04-20T00:32:53.154Z,4.04
2023-04-20T00:36:01.357Z,4.08
2023-04-20T00:39:11.127Z,4.14
2023-04-20T00:42:19.308Z,4.11
2023-04-20T00:45:27.767Z,4.10
2023-04-20T00:48:36.161Z,4.06
2023-04-20T00:51:45.521Z,4.08
2023-04-20T00:54:55.350Z,4.02
2023-04-20T00:58:03.851Z,4.04
2023-04-20T01:01:17.774Z,3.99
2023-04-20T01:04:28.352Z,4.00
2023-04-20T01:07:38.819Z,3.99
2023-04-20T01:10:48.252Z,3.99
2023-04-20T01:13:56.716Z,3.88
2023-04-20T01:17:06.108Z,3.90
2023-04-20T01:20:14.829Z,3.94
2023-04-20T01:23:24.361Z,3.90
2023-04-20T01:26:32.708Z,3.89
2023-04-20T01:29:41.433Z,3.88
2023-04-20T01:32:50.990Z,3.91
2023-04-20T01:35:59.171Z,3.84
2023-04-20T01:39:08.801Z,3.89
2023-04-20T01:42:17.337Z,3.98
2023-04-20T01:45:25.786Z,4.05
2023-04-20T01:48:34.974Z,4.04
2023-04-20T01:51:43.484Z,4.07
2023-04-20T01:54:53.249Z,4.06
2023-04-20T01:58:01.819Z,4.15
2023-04-20T02:01:10.700Z,4.06
2023-04-20T02:04:19.436Z,4.10
2023-04-20T02:07:27.616Z,4.04
2023-04-20T02:10:37.461Z,4.09
2023-04-20T02:13:45.929Z,4.17
2023-04-20T02:16:57.000Z,4.13
2023-04-20T02:20:08.686Z,4.09
2023-04-20T02:23:17.048Z,4.07
2023-04-20T02:26:26.811Z,4.02
2023-04-20T02:29:35.589Z,4.06
2023-04-20T02:32:43.843Z,4.06
2023-04-20T02:35:52.088Z,4.02
2023-04-20T02:39:00.295Z,3.99
2023-04-20T02:42:10.048Z,3.99
2023-04-20T02:45:18.682Z,3.97
2023-04-20T02:48:28.079Z,3.83
2023-04-20T02:51:36.792Z,3.84
2023-04-20T02:54:45.255Z,3.80
2023-04-20T02:57:56.106Z,3.83
2023-04-20T03:01:16.616Z,3.77
2023-04-20T03:04:27.842Z,3.76
2023-04-20T03:07:41.969Z,3.76
2023-04-20T03:10:52.594Z,3.83
2023-04-20T03:14:03.475Z,3.79
2023-04-20T03:17:11.916Z,3.91
2023-04-20T03:20:20.665Z,3.87
2023-04-20T03:23:29.369Z,3.87
2023-04-20T03:26:38.042Z,3.93
2023-04-20T03:30:00.416Z,3.89
2023-04-20T03:33:09.403Z,3.91
2023-04-20T03:36:17.629Z,3.99
2023-04-20T03:39:25.866Z,3.98
2023-04-20T03:42:34.035Z,4.01
2023-04-20T03:45:43.523Z,3.99
2023-04-20T03:48:52.022Z,4.01
2023-04-20T03:52:00.338Z,3.97
2023-04-20T03:55:09.991Z,4.07
2023-04-20T03:58:22.717Z,4.01
2023-04-20T04:01:44.998Z,3.92
2023-04-20T04:04:54.553Z,3.95
2023-04-20T04:08:03.522Z,3.90
2023-04-20T04:11:13.184Z,3.84
2023-04-20T04:14:21.454Z,3.79
2023-04-20T04:17:30.983Z,3.75
2023-04-20T04:20:40.048Z,3.70
2023-04-20T04:23:50.802Z,3.76
2023-04-20T04:27:17.309Z,3.73
2023-04-20T04:30:34.961Z,3.72
2023-04-20T04:33:45.751Z,3.68
2023-04-20T04:36:58.823Z,3.74
2023-04-20T04:40:21.419Z,3.81
2023-04-20T04:43:33.856Z,3.79
2023-04-20T04:47:05.475Z,3.78
2023-04-20T04:50:15.053Z,3.75
2023-04-20T04:53:23.182Z,3.83
2023-04-20T04:56:31.317Z,3.85
2023-04-20T04:59:40.939Z,3.81
2023-04-20T05:02:49.269Z,3.81
2023-04-20T05:05:59.816Z,3.76
2023-04-20T05:09:08.214Z,3.77
2023-04-20T05:12:16.393Z,3.77
2023-04-20T05:15:24.614Z,3.71
2023-04-20T05:18:32.825Z,3.74
2023-04-20T05:21:42.271Z,3.82
2023-04-20T05:24:50.505Z,3.86
2023-04-20T05:27:58.594Z,3.83
2023-04-20T05:31:08.393Z,3.90
2023-04-20T05:34:16.652Z,3.95
2023-04-20T05:37:27.399Z,4.06
2023-04-20T05:40:35.910Z,4.03
2023-04-20T05:43:43.997Z,4.10
2023-04-20T05:46:52.129Z,4.05
2023-04-20T05:50:00.518Z,4.15
2023-04-20T05:53:09.950Z,4.13
2023-04-20T05:56:18.569Z,4.17
2023-04-20T05:59:27.776Z,4.20
2023-04-20T06:02:36.134Z,4.32
2023-04-20T06:05:44.559Z,4.39
2023-04-20T06:08:55.111Z,4.48
2023-04-20T06:12:03.691Z,4.40
2023-04-20T06:15:12.628Z,4.46
2023-04-20T06:18:20.860Z,4.38
2023-04-20T06:21:29.038Z,4.44
2023-04-20T06:24:38.726Z,4.38
2023-04-20T06:27:47.752Z,4.29
2023-04-20T06:30:56.726Z,4.36
2023-04-20T06:34:05.283Z,4.33
2023-04-20T06:37:15.513Z,4.36
2023-04-20T06:40:27.920Z,4.40
2023-04-20T06:43:36.152Z,4.51
2023-04-20T06:46:44.354Z,4.52
2023-04-20T06:49:52.480Z,4.37
2023-04-20T06:53:03.861Z,4.62
2023-04-20T06:56:13.419Z,4.69
2023-04-20T06:59:21.544Z,4.69
2023-04-20T07:02:29.827Z,4.73
2023-04-20T07:05:38.156Z,4.73
2023-04-20T07:08:46.674Z,4.80
2023-04-20T07:11:56.382Z,4.74
2023-04-20T07:15:06.561Z,4.67
2023-04-20T07:18:14.763Z,4.58
2023-04-20T07:21:23.016Z,4.63
2023-04-20T07:24:31.139Z,4.65
2023-04-20T07:27:42.398Z,4.48
2023-04-20T07:30:50.563Z,4.30
2023-04-20T07:33:58.651Z,4.51
2023-04-20T07:37:07.232Z,4.73
2023-04-20T07:40:16.901Z,4.76
2023-04-20T07:43:28.433Z,4.67
2023-04-20T07:46:37.149Z,4.76
2023-04-20T07:49:45.491Z,4.81
2023-04-20T07:52:53.844Z,4.92
2023-04-20T07:56:02.046Z,4.90
2023-04-20T07:59:11.538Z,4.87
2023-04-20T08:02:20.573Z,4.83
2023-04-20T08:05:29.039Z,4.93
2023-04-20T08:08:38.008Z,4.89
2023-04-20T08:11:46.578Z,4.85
2023-04-20T08:14:59.927Z,4.78
2023-04-20T08:18:08.110Z,4.75
2023-04-20T08:21:16.326Z,4.87
2023-04-20T08:24:24.553Z,4.82
2023-04-20T08:27:33.495Z,4.84
2023-04-20T08:30:45.513Z,5.00
2023-04-20T08:33:53.730Z,5.08
2023-04-20T08:37:02.119Z,5.19
2023-04-20T08:40:11.666Z,5.21
2023-04-20T08:43:22.073Z,5.18
2023-04-20T08:46:34.874Z,5.24
2023-04-20T08:49:45.523Z,5.24
2023-04-20T08:52:53.656Z,5.05
2023-04-20T08:56:01.848Z,4.97
2023-04-20T08:59:11.210Z,4.86
2023-04-20T09:02:21.989Z,4.88
2023-04-20T09:05:32.132Z,4.85
2023-04-20T09:08:42.879Z,5.02
2023-04-20T09:12:03.643Z,5.37
2023-04-20T09:15:12.887Z,5.58
2023-04-20T09:18:23.673Z,5.58
2023-04-20T09:21:32.687Z,5.33
2023-04-20T09:24:42.959Z,5.26
2023-04-20T09:28:01.914Z,5.28
2023-04-20T09:31:19.934Z,5.43
2023-04-20T09:34:29.688Z,5.36
2023-04-20T09:37:48.285Z,5.58
2023-04-20T09:40:59.152Z,5.61
2023-04-20T09:44:09.445Z,5.50
2023-04-20T09:47:19.213Z,5.47
2023-04-20T09:50:38.312Z,5.61
2023-04-20T09:53:56.126Z,5.49
2023-04-20T09:57:04.696Z,5.56
2023-04-20T10:00:14.520Z,5.44
2023-04-20T10:03:22.840Z,5.27
2023-04-20T10:06:36.756Z,5.19
2023-04-20T10:09:45.286Z,5.38
2023-04-20T10:12:56.095Z,5.20
2023-04-20T10:16:04.345Z,5.23
2023-04-20T10:19:12.721Z,5.43
2023-04-20T10:22:33.075Z,6.06
2023-04-20T10:25:42.069Z,6.20
2023-04-20T10:28:50.307Z,6.35
2023-04-20T10:31:59.020Z,6.76
2023-04-20T10:35:11.033Z,7.01
2023-04-20T10:38:31.872Z,7.12
2023-04-20T10:41:52.977Z,7.28
2023-04-20T10:45:01.401Z,7.19
2023-04-20T10:48:10.663Z,7.09
2023-04-20T10:51:19.159Z,7.35
2023-04-20T10:54:38.034Z,7.79
2023-04-20T10:57:48.838Z,7.94
2023-04-20T11:01:02.524Z,7.80
2023-04-20T11:04:11.773Z,7.84
2023-04-20T11:07:20.925Z,7.67
2023-04-20T11:10:42.094Z,7.82
2023-04-20T11:13:50.478Z,7.69
2023-04-20T11:16:59.314Z,7.44
2023-04-20T11:20:10.973Z,7.28
2023-04-20T11:23:21.296Z,7.18
2023-04-20T11:26:40.411Z,7.06
2023-04-20T11:29:58.557Z,6.76
2023-04-20T11:33:06.875Z,6.85
2023-04-20T11:36:22.655Z,6.76
2023-04-20T11:39:32.116Z,6.59
2023-04-20T11:42:41.622Z,6.87
2023-04-20T11:45:49.793Z,6.89
2023-04-20T11:48:59.948Z,7.07
2023-04-20T11:52:08.382Z,6.95
2023-04-20T11:55:16.539Z,6.86
2023-04-20T11:58:26.326Z,6.68
2023-04-20T12:01:36.440Z,6.50
2023-04-20T12:04:45.033Z,6.50
2023-04-20T12:07:54.437Z,6.42
2023-04-20T12:11:02.582Z,6.58
2023-04-20T12:14:11.991Z,6.86
2023-04-20T12:17:20.101Z,6.92
2023-04-20T12:20:28.695Z,7.04
2023-04-20T12:23:37.005Z,6.82
2023-04-20T12:26:45.970Z,6.89
2023-04-20T12:29:55.474Z,7.09
2023-04-20T12:33:04.442Z,7.41
2023-04-20T12:36:12.666Z,7.24
2023-04-20T12:39:20.782Z,7.59
2023-04-20T12:42:29.401Z,7.71
2023-04-20T12:45:38.860Z,7.69
2023-04-20T12:48:47.332Z,7.70
2023-04-20T12:51:55.509Z,7.63
2023-04-20T12:55:04.144Z,7.69
2023-04-20T12:58:12.620Z,8.00
2023-04-20T13:01:22.222Z,8.04
2023-04-20T13:04:31.359Z,7.83
2023-04-20T13:07:39.588Z,7.91
2023-04-20T13:10:47.790Z,8.11
2023-04-20T13:13:56.505Z,8.49
2023-04-20T13:17:06.889Z,8.44
2023-04-20T13:20:15.372Z,8.61
2023-04-20T13:23:23.524Z,8.32
2023-04-20T13:26:32.007Z,8.39
2023-04-20T13:29:41.384Z,8.65
2023-04-20T13:32:51.245Z,8.18
2023-04-20T13:35:59.546Z,8.24
2023-04-20T13:39:07.995Z,8.17
2023-04-20T13:42:16.817Z,7.60
2023-04-20T13:45:25.947Z,7.53
2023-04-20T13:48:35.536Z,7.46
2023-04-20T13:51:44.411Z,7.44
2023-04-20T13:54:52.638Z,7.59
2023-04-20T13:58:00.974Z,7.62
2023-04-20T14:01:09.801Z,8.00
2023-04-20T14:04:19.963Z,7.86
2023-04-20T14:07:28.539Z,7.88
2023-04-20T14:10:39.554Z,7.93
2023-04-20T14:13:47.980Z,7.95
2023-04-20T14:16:56.441Z,7.83
2023-04-20T14:20:07.970Z,7.77
2023-04-20T14:23:16.220Z,7.41
2023-04-20T14:26:24.346Z,7.40
2023-04-20T14:29:32.469Z,7.48
2023-04-20T14:32:41.908Z,7.55
2023-04-20T14:35:51.491Z,7.63
2023-04-20T14:38:59.614Z,7.60
2023-04-20T14:42:08.536Z,7.73
2023-04-20T14:45:16.758Z,7.96
2023-04-20T14:48:26.656Z,8.07
2023-04-20T14:51:36.525Z,8.25
2023-04-20T14:54:44.789Z,8.15
2023-04-20T14:57:56.624Z,7.87
2023-04-20T15:01:05.038Z,7.85
2023-04-20T15:04:13.259Z,8.35
2023-04-20T15:07:23.041Z,8.84
2023-04-20T15:10:31.476Z,8.43
2023-04-20T15:13:42.433Z,8.48
2023-04-20T15:16:53.550Z,8.46
2023-04-20T15:20:01.815Z,8.53
2023-04-20T15:23:11.503Z,8.77
2023-04-20T15:26:20.415Z,8.95
2023-04-20T15:29:29.863Z,9.16
2023-04-20T15:32:38.301Z,9.11
2023-04-20T15:35:46.555Z,9.04
2023-04-20T15:38:57.929Z,8.62
2023-04-20T15:42:06.830Z,8.65
2023-04-20T15:45:15.904Z,9.10
2023-04-20T15:48:24.268Z,9.15
2023-04-20T15:51:32.701Z,8.95
2023-04-20T15:54:42.584Z,8.98
2023-04-20T15:57:56.869Z,8.83
2023-04-20T16:01:05.268Z,8.83
2023-04-20T16:04:13.840Z,8.78
2023-04-20T16:07:22.244Z,8.69
2023-04-20T16:10:31.862Z,8.51
2023-04-20T16:13:40.051Z,8.24
2023-04-20T16:16:49.025Z,8.33
2023-04-20T16:19:57.328Z,8.43
2023-04-20T16:23:05.978Z,8.24
2023-04-20T16:26:16.124Z,7.99
2023-04-20T16:29:24.360Z,8.19
2023-04-20T16:32:34.398Z,8.43
2023-04-20T16:35:42.784Z,8.65
2023-04-20T16:38:51.172Z,8.39
2023-04-20T16:42:00.786Z,8.39
2023-04-20T16:45:10.140Z,8.34
2023-04-20T16:48:18.578Z,8.24
2023-04-20T16:51:27.281Z,8.21
2023-04-20T16:54:35.630Z,7.82
2023-04-20T16:57:45.400Z,7.85
2023-04-20T17:00:53.763Z,7.88
2023-04-20T17:04:02.346Z,7.95
2023-04-20T17:07:12.023Z,7.90
2023-04-20T17:10:20.478Z,7.87
2023-04-20T17:13:30.062Z,8.00
2023-04-20T17:16:38.188Z,8.05
2023-04-20T17:19:46.554Z,8.14
2023-04-20T17:22:54.806Z,8.07
2023-04-20T17:26:03.622Z,8.04
2023-04-20T17:29:13.549Z,8.02
2023-04-20T17:32:21.889Z,7.96
2023-04-20T17:35:30.423Z,7.94
2023-04-20T17:38:39.140Z,7.87
2023-04-20T17:41:47.330Z,7.83
2023-04-20T17:44:57.330Z,7.71
2023-04-20T17:48:06.715Z,7.74
2023-04-20T17:51:17.601Z,7.74
2023-04-20T17:54:26.725Z,7.66
2023-04-20T17:57:34.994Z,7.59
2023-04-20T18:00:47.449Z,7.59
2023-04-20T18:03:55.958Z,7.53
2023-04-20T18:07:04.395Z,7.51
2023-04-20T18:10:15.660Z,7.48
2023-04-20T18:13:24.118Z,7.41
2023-04-20T18:16:33.659Z,7.39
2023-04-20T18:19:42.154Z,7.29
2023-04-20T18:22:50.636Z,7.16
2023-04-20T18:25:58.813Z,7.23
2023-04-20T18:29:06.932Z,7.25
2023-04-20T18:32:18.038Z,7.17
2023-04-20T18:35:26.396Z,7.13
2023-04-20T18:38:35.221Z,7.10
2023-04-20T18:41:43.303Z,7.16
2023-04-20T18:44:53.026Z,7.12
2023-04-20T18:48:03.218Z,7.09
2023-04-20T18:51:11.635Z,7.04
2023-04-20T18:54:19.940Z,7.02
2023-04-20T18:57:29.061Z,6.95
2023-04-20T19:00:37.374Z,6.92
2023-04-20T19:03:48.185Z,6.90
2023-04-20T19:06:56.731Z,6.90
2023-04-20T19:10:06.012Z,6.86
2023-04-20T19:13:17.537Z,6.97
2023-04-20T19:16:26.135Z,6.94
2023-04-20T19:19:36.589Z,6.97
2023-04-20T19:22:44.966Z,6.90
2023-04-20T19:25:53.276Z,6.99
2023-04-20T19:29:01.606Z,7.01
2023-04-20T19:32:09.798Z,6.97
2023-04-20T19:35:19.854Z,6.92
2023-04-20T19:38:31.073Z,6.84
2023-04-20T19:41:39.685Z,6.94
2023-04-20T19:44:48.120Z,6.76
2023-04-20T19:47:56.467Z,6.81
2023-04-20T19:51:06.649Z,6.88
2023-04-20T19:54:16.677Z,6.83
2023-04-20T19:57:25.029Z,6.86
2023-04-20T20:00:33.440Z,6.94
2023-04-20T20:03:42.908Z,6.91
2023-04-20T20:06:52.868Z,6.87
2023-04-20T20:10:01.524Z,6.85
2023-04-20T20:13:09.873Z,6.77
2023-04-20T20:16:18.397Z,6.75
2023-04-20T20:19:27.804Z,6.73
2023-04-20T20:22:37.626Z,6.70
2023-04-20T20:25:46.350Z,6.74
2023-04-20T20:28:54.700Z,6.56
2023-04-20T20:32:03.050Z,6.70
2023-04-20T20:35:13.416Z,6.68
2023-04-20T20:38:23.548Z,6.64
2023-04-20T20:41:32.555Z,6.72
2023-04-20T20:44:42.218Z,6.75
2023-04-20T20:47:50.850Z,6.85
2023-04-20T20:50:59.422Z,6.71
2023-04-20T20:54:09.260Z,6.77
2023-04-20T20:57:17.493Z,6.80
2023-04-20T21:00:30.995Z,6.79
2023-04-20T21:03:39.410Z,6.71
2023-04-20T21:06:48.259Z,6.66
2023-04-20T21:09:58.350Z,6.70
2023-04-20T21:13:07.360Z,6.69
2023-04-20T21:16:18.547Z,6.66
2023-04-20T21:19:27.078Z,6.62
2023-04-20T21:22:36.329Z,6.69
2023-04-20T21:25:46.187Z,6.65
2023-04-20T21:28:55.273Z,6.76
2023-04-20T21:32:03.510Z,6.69
2023-04-20T21:35:12.602Z,6.81
2023-04-20T21:38:20.946Z,6.80
2023-04-20T21:41:32.197Z,6.81
2023-04-20T21:44:40.544Z,6.67
2023-04-20T21:47:49.198Z,6.70
2023-04-20T21:50:57.361Z,6.68
2023-04-20T21:54:05.838Z,6.61
2023-04-20T21:57:15.231Z,6.51
2023-04-20T22:00:23.651Z,6.43
2023-04-20T22:03:32.276Z,6.47
2023-04-20T22:06:40.616Z,6.51
2023-04-20T22:09:48.871Z,6.53
2023-04-20T22:12:58.320Z,6.62
2023-04-20T22:16:07.373Z,6.53
2023-04-20T22:19:16.187Z,6.53
2023-04-20T22:22:24.443Z,6.51
2023-04-20T22:25:32.554Z,6.55
2023-04-20T22:28:42.378Z,6.51
2023-04-20T22:31:50.597Z,6.53
2023-04-20T22:34:58.803Z,6.28
2023-04-20T22:38:06.911Z,6.34
2023-04-20T22:41:17.268Z,6.19
2023-04-20T22:44:27.529Z,6.07
2023-04-20T22:47:37.118Z,6.01
2023-04-20T22:50:45.550Z,6.04
2023-04-20T22:53:54.600Z,6.11
2023-04-20T22:57:03.058Z,5.97
2023-04-20T23:00:14.669Z,5.70
2023-04-20T23:03:22.980Z,5.72
2023-04-20T23:06:31.570Z,5.62
2023-04-20T23:09:41.272Z,5.61
2023-04-20T23:12:50.532Z,5.58
2023-04-20T23:16:00.169Z,5.52
2023-04-20T23:19:08.404Z,5.48
2023-04-20T23:22:16.815Z,5.42
2023-04-20T23:25:25.004Z,5.37
2023-04-20T23:28:33.150Z,5.40
2023-04-20T23:31:42.849Z,5.43
2023-04-20T23:34:51.091Z,5.41
2023-04-20T23:37:59.308Z,5.52
2023-04-20T23:41:11.384Z,5.28
2023-04-20T23:44:19.528Z,5.41
2023-04-20T23:47:29.115Z,5.57
2023-04-20T23:50:37.809Z,5.63
2023-04-20T23:53:46.249Z,5.64
2023-04-20T23:56:55.404Z,5.66
